Time;durP1;ratioP1;P1;durP2;ratioP2;P2;SDS_P1;SDS_P2;PMS_P1;PMS_P2;Temp;Humidity;BMP_temperature;BMP_pressure;BME280_temperature;BME280_humidity;BME280_pressure;Samples;Min_cycle;Max_cycle;Signal;HPM_P1;HPM_P2
2024/01/22 00:01:16;;;;;;;;;;;;;;;12.34;55.59;100172.22;4964986;28;6950;-76
2024/01/22 00:03:42;;;;;;;;;;;;;;;12.37;55.35;100140.63;4967549;28;6973;-76
2024/01/22 00:06:08;;;;;;;;;;;;;;;12.37;55.81;100156.03;4957778;28;7226;-77
2024/01/22 00:08:34;;;;;;;;;;;;;;;12.39;55.17;100158.66;4952412;28;6939;-76
2024/01/22 00:10:59;;;;;;;;;;;;;;;12.40;55.30;100165.56;4972841;28;8074;-76
2024/01/22 00:13:25;;;;;;;;;;;;;;;12.41;55.43;100149.31;4972586;28;6915;-76
2024/01/22 00:15:50;;;;;;;;;;;;;;;12.43;55.60;100134.81;4947744;28;7316;-76
2024/01/22 00:18:16;;;;;;;;;;;;;;;12.46;54.94;100140.09;4964603;28;6956;-77
2024/01/22 00:20:41;;;;;;;;;;;;;;;12.48;55.30;100129.03;4975618;28;7055;-77
2024/01/22 00:23:07;;;;;;;;;;;;;;;12.52;55.18;100124.00;4979919;28;6796;-76
2024/01/22 00:25:33;;;;;;;;;;;;;;;12.52;55.54;100100.88;4957201;28;6976;-76
2024/01/22 00:27:58;;;;;;;;;;;;;;;12.55;55.49;100106.97;4977513;28;6984;-76
2024/01/22 00:30:24;;;;;;;;;;;;;;;12.57;55.01;100104.47;4982917;28;6824;-76
2024/01/22 00:32:51;;;;;;;;;;;;;;;12.59;55.77;100098.56;4966992;28;6937;-77
2024/01/22 00:35:18;;;;;;;;;;;;;;;12.60;54.89;100092.59;4964289;28;7003;-76
2024/01/22 00:37:43;;;;;;;;;;;;;;;12.61;55.38;100048.06;4949974;28;7038;-76
2024/01/22 00:40:09;;;;;;;;;;;;;;;12.61;55.33;100057.50;4987151;28;6764;-76
2024/01/22 00:42:35;;;;;;;;;;;;;;;12.62;55.21;100059.25;4980821;28;6967;-76
2024/01/22 00:45:00;;;;;;;;;;;;;;;12.62;55.15;100070.38;4985051;28;7000;-76
2024/01/22 00:47:27;;;;;;;;;;;;;;;12.64;55.10;100062.72;4982280;28;6752;-76
2024/01/22 00:49:53;;;;;;;;;;;;;;;12.64;54.60;100022.44;4983486;28;6982;-76
2024/01/22 00:52:18;;;;;;;;;;;;;;;12.67;54.53;100015.69;4966441;28;7010;-76
2024/01/22 00:54:44;;;;;;;;;;;;;;;12.70;54.99;99995.22;4981427;28;6843;-76
2024/01/22 00:57:10;;;;;;;;;;;;;;;12.71;54.78;99982.41;4983302;28;6772;-76
2024/01/22 00:59:36;;;;;;;;;;;;;;;12.69;54.47;99973.75;4951326;28;7280;-77
2024/01/22 01:02:03;;;;;;;;;;;;;;;12.68;54.92;99972.00;4963652;28;6784;-77
2024/01/22 01:04:29;;;;;;;;;;;;;;;12.70;54.57;99979.78;4945933;28;6972;-76
2024/01/22 01:06:54;;;;;;;;;;;;;;;12.72;55.02;99972.97;4978919;28;6760;-77
2024/01/22 01:09:20;;;;;;;;;;;;;;;12.77;54.57;99981.75;4979457;28;7046;-77
2024/01/22 01:11:45;;;;;;;;;;;;;;;12.80;54.73;99968.97;4963712;28;6800;-77
2024/01/22 01:14:11;;;;;;;;;;;;;;;12.83;54.06;99961.34;4965043;28;6956;-76
2024/01/22 01:16:36;;;;;;;;;;;;;;;12.86;54.38;99956.31;4960140;28;7246;-77
2024/01/22 01:19:02;;;;;;;;;;;;;;;12.89;53.84;99935.81;4978424;28;6772;-76
2024/01/22 01:21:28;;;;;;;;;;;;;;;12.91;54.57;99917.88;4958483;28;6772;-76
2024/01/22 01:23:53;;;;;;;;;;;;;;;12.94;53.46;99910.25;4969887;28;6840;-77
2024/01/22 01:26:19;;;;;;;;;;;;;;;12.97;53.53;99858.88;4955721;28;6920;-76
2024/01/22 01:28:44;;;;;;;;;;;;;;;12.97;54.13;99866.59;4958563;28;6932;-77
2024/01/22 01:31:10;;;;;;;;;;;;;;;13.01;53.31;99877.84;4955777;28;6817;-76
2024/01/22 01:33:36;;;;;;;;;;;;;;;13.03;53.86;99882.22;4975072;28;6788;-77
2024/01/22 01:36:01;;;;;;;;;;;;;;;13.07;53.79;99878.06;4964162;28;7011;-76
2024/01/22 01:38:27;;;;;;;;;;;;;;;13.10;53.39;99878.13;4970929;28;6954;-77
2024/01/22 01:40:53;;;;;;;;;;;;;;;13.14;53.82;99877.41;4966719;28;7023;-76
2024/01/22 01:43:18;;;;;;;;;;;;;;;13.18;53.62;99888.63;4958335;28;6965;-77
2024/01/22 01:45:44;;;;;;;;;;;;;;;13.21;53.06;99899.03;4970399;28;6780;-77
2024/01/22 01:48:12;;;;;;;;;;;;;;;13.25;53.61;99906.00;4970558;28;6991;-77
2024/01/22 01:50:39;;;;;;;;;;;;;;;13.28;53.83;99910.38;4970623;28;6896;-76
2024/01/22 01:53:06;;;;;;;;;;;;;;;13.31;52.67;99939.66;4954470;28;6792;-77
2024/01/22 01:55:35;;;;;;;;;;;;;;;13.38;53.75;99965.59;4954901;28;6919;-77
2024/01/22 01:58:01;;;;;;;;;;;;;;;13.43;53.39;99967.47;4969154;28;6804;-77
2024/01/22 02:00:28;;;;;;;;;;;;;;;13.45;52.53;99955.53;4951609;28;6970;-77
2024/01/22 02:02:54;;;;;;;;;;;;;;;13.47;52.51;99966.75;4956157;28;6864;-77
2024/01/22 02:05:20;;;;;;;;;;;;;;;13.49;52.71;99965.91;4968799;28;6919;-77
2024/01/22 02:07:47;;;;;;;;;;;;;;;13.52;52.50;99958.25;4965276;28;6775;-77
2024/01/22 02:10:13;;;;;;;;;;;;;;;13.56;52.84;99944.66;4943019;28;7419;-76
2024/01/22 02:12:39;;;;;;;;;;;;;;;13.63;53.50;99930.25;4949786;28;6864;-77
2024/01/22 02:15:06;;;;;;;;;;;;;;;13.68;53.15;99911.53;4950811;28;6926;-77
2024/01/22 02:17:32;;;;;;;;;;;;;;;13.73;53.04;99881.63;4949457;28;6803;-78
2024/01/22 02:19:57;;;;;;;;;;;;;;;13.80;52.48;99863.75;4949701;28;6970;-77
2024/01/22 02:22:23;;;;;;;;;;;;;;;13.84;53.41;99878.47;4968699;28;7077;-77
2024/01/22 02:24:48;;;;;;;;;;;;;;;13.89;53.43;99877.75;4965450;28;6995;-77
2024/01/22 02:27:15;;;;;;;;;;;;;;;13.97;52.61;99865.06;4952496;28;6776;-77
2024/01/22 02:29:41;;;;;;;;;;;;;;;14.02;52.94;99878.94;4928688;28;7280;-77
2024/01/22 02:32:07;;;;;;;;;;;;;;;14.07;52.66;99865.28;4944505;28;7034;-77
2024/01/22 02:34:33;;;;;;;;;;;;;;;14.13;52.63;99852.56;4967533;28;6784;-78
2024/01/22 02:36:59;;;;;;;;;;;;;;;14.13;52.93;99844.84;4971369;28;7072;-76
2024/01/22 02:39:24;;;;;;;;;;;;;;;14.06;53.03;99824.91;4953134;28;6828;-78
2024/01/22 02:41:50;;;;;;;;;;;;;;;13.87;53.70;99816.72;4968575;28;7456;-76
2024/01/22 02:44:16;;;;;;;;;;;;;;;13.72;55.30;99802.63;4965701;28;6799;-77
2024/01/22 02:46:41;;;;;;;;;;;;;;;13.64;54.72;99819.59;4944979;28;7107;-77
2024/01/22 02:49:10;;;;;;;;;;;;;;;13.62;55.04;99847.00;4950394;28;6778;-77
2024/01/22 02:51:36;;;;;;;;;;;;;;;13.64;55.44;99854.75;4946218;28;7151;-77
2024/01/22 02:54:06;;;;;;;;;;;;;;;13.67;55.73;99835.09;4950088;28;6977;-77
2024/01/22 02:56:32;;;;;;;;;;;;;;;13.73;55.63;99826.66;4965457;28;7087;-78
2024/01/22 02:58:58;;;;;;;;;;;;;;;13.81;55.54;99821.69;4966919;28;6784;-76
2024/01/22 03:01:24;;;;;;;;;;;;;;;13.86;55.10;99825.28;4967904;28;6789;-77
2024/01/22 03:03:50;;;;;;;;;;;;;;;13.93;55.19;99826.31;4949365;28;6772;-77
2024/01/22 03:06:15;;;;;;;;;;;;;;;13.97;55.43;99829.00;4965940;28;6772;-76
2024/01/22 03:08:41;;;;;;;;;;;;;;;14.06;54.87;99842.94;4969696;28;7114;-76
2024/01/22 03:11:07;;;;;;;;;;;;;;;14.11;54.65;99826.75;4966142;28;6869;-76
2024/01/22 03:13:34;;;;;;;;;;;;;;;14.16;54.80;99803.69;4951742;28;6796;-76
2024/01/22 03:15:59;;;;;;;;;;;;;;;14.22;55.17;99829.59;4967094;28;7970;-76
2024/01/22 03:18:25;;;;;;;;;;;;;;;14.28;55.10;99801.38;4951788;28;6808;-77
2024/01/22 03:20:51;;;;;;;;;;;;;;;14.25;54.80;99757.50;4974038;28;6992;-76
2024/01/22 03:23:17;;;;;;;;;;;;;;;14.14;54.88;99801.06;4967785;28;6784;-76
2024/01/22 03:25:43;;;;;;;;;;;;;;;14.00;55.50;99790.44;4947769;28;6945;-77
2024/01/22 03:28:08;;;;;;;;;;;;;;;13.85;55.34;99769.44;4969602;28;6824;-77
2024/01/22 03:30:34;;;;;;;;;;;;;;;13.72;56.15;99784.59;4968468;28;6772;-76
2024/01/22 03:33:00;;;;;;;;;;;;;;;13.62;57.09;99772.34;4968582;28;6954;-77
2024/01/22 03:35:25;;;;;;;;;;;;;;;13.53;56.94;99779.81;4954117;28;6772;-77
2024/01/22 03:37:51;;;;;;;;;;;;;;;13.45;57.56;99767.63;4975187;28;6768;-76
2024/01/22 03:43:35;;;;;;;;;;;;;;;13.39;57.78;99757.13;4973821;23;8851;-84
2024/01/22 04:04:10;;;;;;;;;;;;;;;13.18;59.55;99700.78;5079893;23;6890;-83
2024/01/22 04:06:39;;;;;;;;;;;;;;;13.18;59.99;99696.53;5006700;28;6807;-83
2024/01/22 04:09:04;;;;;;;;;;;;;;;13.18;60.04;99691.38;4983769;23;6808;-83
2024/01/22 04:11:33;;;;;;;;;;;;;;;13.18;59.73;99700.78;4934661;28;6792;-82
2024/01/22 04:14:00;;;;;;;;;;;;;;;13.12;59.80;99691.22;5000028;23;6894;-82
2024/01/22 04:16:28;;;;;;;;;;;;;;;13.12;60.28;99685.22;4983524;28;7176;-85
2024/01/22 04:18:54;;;;;;;;;;;;;;;13.11;60.02;99679.19;4957968;28;7001;-89
2024/01/22 04:21:19;;;;;;;;;;;;;;;13.10;60.58;99668.88;4997203;23;6954;-86
2024/01/22 04:23:50;;;;;;;;;;;;;;;13.08;59.94;99655.09;4967104;28;8467;-86
2024/01/22 04:26:24;;;;;;;;;;;;;;;13.10;60.66;99656.88;4992237;23;6811;-86
2024/01/22 04:28:52;;;;;;;;;;;;;;;13.11;61.02;99632.03;4929667;28;7004;-87
2024/01/22 04:31:19;;;;;;;;;;;;;;;13.13;61.22;99666.38;5009202;23;6978;-86
2024/01/22 04:33:45;;;;;;;;;;;;;;;13.13;60.82;99672.38;4957655;28;6983;-85
2024/01/22 04:36:10;;;;;;;;;;;;;;;13.19;60.43;99646.81;4980364;23;7334;-86
2024/01/22 04:38:45;;;;;;;;;;;;;;;13.23;60.62;99641.72;4962840;28;7052;-86
2024/01/22 04:41:16;;;;;;;;;;;;;;;13.27;61.34;99649.56;4946140;28;7292;-85
2024/01/22 04:43:59;;;;;;;;;;;;;;;13.32;60.95;99645.44;5007452;23;8629;-85
2024/01/22 04:46:30;;;;;;;;;;;;;;;13.37;60.96;99647.22;4940837;28;8847;-85
2024/01/22 04:49:03;;;;;;;;;;;;;;;13.54;60.97;99647.69;4950640;23;7167;-85
2024/01/22 04:51:28;;;;;;;;;;;;;;;13.70;59.86;99659.22;4921598;28;7414;-85
2024/01/22 04:53:54;;;;;;;;;;;;;;;13.81;59.18;99668.06;4973764;23;7144;-74
2024/01/22 04:56:20;;;;;;;;;;;;;;;13.90;58.54;99672.53;4965912;28;6984;-74
2024/01/22 04:58:46;;;;;;;;;;;;;;;13.90;58.39;99659.66;4949627;28;6949;-74
2024/01/22 05:01:12;;;;;;;;;;;;;;;13.84;59.03;99647.50;4963254;28;6955;-74
2024/01/22 05:03:38;;;;;;;;;;;;;;;13.78;58.95;99662.84;4952474;28;7463;-75
2024/01/22 05:06:04;;;;;;;;;;;;;;;13.75;59.47;99650.75;4930872;28;7422;-75
2024/01/22 05:08:29;;;;;;;;;;;;;;;13.73;59.76;99638.69;4943955;28;7675;-75
2024/01/22 05:10:55;;;;;;;;;;;;;;;13.73;59.21;99630.94;4929376;28;7242;-75
2024/01/22 05:13:23;;;;;;;;;;;;;;;13.73;59.81;99655.00;4926791;28;7238;-74
2024/01/22 05:15:48;;;;;;;;;;;;;;;13.74;59.09;99632.69;4939245;28;7834;-74
2024/01/22 05:18:15;;;;;;;;;;;;;;;13.76;60.22;99649.03;4942859;28;8469;-74
2024/01/22 05:20:40;;;;;;;;;;;;;;;13.83;60.18;99656.06;4930366;28;7590;-74
2024/01/22 05:23:07;;;;;;;;;;;;;;;13.95;59.17;99644.31;4946393;28;6840;-74
2024/01/22 05:25:32;;;;;;;;;;;;;;;14.10;58.96;99616.31;4947232;28;6820;-74
2024/01/22 05:27:58;;;;;;;;;;;;;;;14.23;58.66;99614.84;4947860;28;6855;-75
2024/01/22 05:30:23;;;;;;;;;;;;;;;14.35;58.36;99614.25;4947420;28;6803;-75
2024/01/22 05:32:50;;;;;;;;;;;;;;;14.47;57.76;99626.47;4947939;28;7045;-75
2024/01/22 05:35:16;;;;;;;;;;;;;;;14.58;57.18;99622.44;4947576;28;6788;-75
2024/01/22 05:37:42;;;;;;;;;;;;;;;14.66;56.76;99638.03;4945507;28;6830;-75
2024/01/22 05:40:10;;;;;;;;;;;;;;;14.75;56.81;99619.31;4946527;28;7184;-74
2024/01/22 05:42:37;;;;;;;;;;;;;;;14.80;56.66;99617.69;4944528;28;7184;-74
2024/01/22 05:45:03;;;;;;;;;;;;;;;14.78;56.81;99621.09;4947148;28;7189;-74
2024/01/22 05:47:29;;;;;;;;;;;;;;;14.72;56.32;99635.59;4938620;28;7551;-74
2024/01/22 05:49:55;;;;;;;;;;;;;;;14.78;56.66;99574.66;4946323;28;7227;-74
2024/01/22 05:52:20;;;;;;;;;;;;;;;14.83;56.37;99627.22;4942265;28;7010;-74
2024/01/22 05:54:46;;;;;;;;;;;;;;;14.90;56.18;99618.72;4946380;28;7381;-75
2024/01/22 05:57:11;;;;;;;;;;;;;;;14.96;56.21;99617.94;4958881;28;6947;-75
2024/01/22 05:59:40;;;;;;;;;;;;;;;15.00;55.63;99610.28;4969210;28;7173;-75
2024/01/22 06:02:06;;;;;;;;;;;;;;;15.03;55.68;99635.28;4952045;28;7130;-74
2024/01/22 06:04:32;;;;;;;;;;;;;;;15.06;55.68;99630.16;4968269;28;6988;-74
2024/01/22 06:06:57;;;;;;;;;;;;;;;15.07;55.57;99621.63;4969402;28;6752;-74
2024/01/22 06:09:23;;;;;;;;;;;;;;;15.09;55.55;99617.34;4951073;28;6961;-76
2024/01/22 06:11:48;;;;;;;;;;;;;;;15.11;55.75;99599.28;4968509;28;7138;-77
2024/01/22 06:14:14;;;;;;;;;;;;;;;15.12;55.71;99650.94;4971229;28;6764;-74
2024/01/22 06:16:40;;;;;;;;;;;;;;;15.11;55.32;99644.03;4966812;28;6848;-74
2024/01/22 06:19:05;;;;;;;;;;;;;;;15.03;55.56;99617.22;4966755;28;6784;-78
2024/01/22 06:21:31;;;;;;;;;;;;;;;14.92;55.96;99627.38;4968850;28;6848;-74
2024/01/22 06:23:58;;;;;;;;;;;;;;;14.86;56.07;99628.09;4968918;28;6768;-75
2024/01/22 06:26:23;;;;;;;;;;;;;;;14.87;56.23;99629.00;4966955;28;6788;-74
2024/01/22 06:28:49;;;;;;;;;;;;;;;14.94;56.04;99611.91;4967245;28;6852;-77
2024/01/22 06:31:15;;;;;;;;;;;;;;;14.98;55.77;99611.97;4947750;28;8501;-77
2024/01/22 06:33:41;;;;;;;;;;;;;;;15.03;55.83;99596.56;4967045;28;6800;-75
2024/01/22 06:36:07;;;;;;;;;;;;;;;15.07;55.57;99639.69;4952258;28;6955;-74
2024/01/22 06:38:32;;;;;;;;;;;;;;;15.10;55.68;99615.59;4971492;28;6817;-75
2024/01/22 06:40:58;;;;;;;;;;;;;;;15.13;55.43;99615.69;4971248;28;6768;-75
2024/01/22 06:43:24;;;;;;;;;;;;;;;15.16;55.22;99609.69;4969274;28;6837;-75
2024/01/22 06:45:50;;;;;;;;;;;;;;;15.19;55.51;99630.41;4968864;28;6768;-75
2024/01/22 06:48:15;;;;;;;;;;;;;;;15.21;55.69;99618.38;4963084;28;6938;-76
2024/01/22 06:50:41;;;;;;;;;;;;;;;15.24;55.40;99603.81;4962917;28;7223;-75
2024/01/22 06:53:07;;;;;;;;;;;;;;;15.27;55.42;99624.50;4955618;28;6951;-75
2024/01/22 06:55:32;;;;;;;;;;;;;;;15.27;55.34;99627.09;4970295;28;7185;-74
2024/01/22 07:05:37;;;;;;;;;;;;;;;15.09;55.41;99627.66;4962814;28;6945;-76
2024/01/22 07:08:02;;;;;;;;;;;;;;;15.11;55.41;99628.53;4950275;28;6823;-75
2024/01/22 07:10:28;;;;;;;;;;;;;;;15.17;55.72;99647.56;4950500;28;7006;-76
2024/01/22 07:12:54;;;;;;;;;;;;;;;15.22;56.01;99661.41;4947540;28;6783;-76
2024/01/22 07:15:19;;;;;;;;;;;;;;;15.27;55.36;99676.13;4946684;28;7021;-76
2024/01/22 07:17:45;;;;;;;;;;;;;;;15.23;55.72;99673.47;4947960;28;6955;-76
2024/01/22 07:20:14;;;;;;;;;;;;;;;15.02;56.31;99695.47;4949968;28;7126;-77
2024/01/22 07:22:45;;;;;;;;;;;;;;;14.82;56.84;99714.03;4947183;28;7192;-76
2024/01/22 07:25:11;;;;;;;;;;;;;;;14.63;57.83;99686.09;4963762;28;6808;-75
2024/01/22 07:27:39;;;;;;;;;;;;;;;14.47;58.40;99711.56;4945273;28;7083;-76
2024/01/22 07:30:11;;;;;;;;;;;;;;;14.33;58.74;99698.38;4961589;28;6804;-76
2024/01/22 07:32:39;;;;;;;;;;;;;;;14.21;59.78;99701.59;4942935;28;6995;-76
2024/01/22 07:35:09;;;;;;;;;;;;;;;14.12;59.44;99693.66;4947081;28;6988;-77
2024/01/22 07:37:41;;;;;;;;;;;;;;;14.02;59.91;99690.88;4945857;28;6943;-76
2024/01/22 07:40:09;;;;;;;;;;;;;;;13.93;60.71;99698.38;4947292;28;7095;-76
2024/01/22 07:42:36;;;;;;;;;;;;;;;13.87;60.57;99696.53;4937643;28;8888;-76
2024/01/22 07:45:03;;;;;;;;;;;;;;;13.84;60.92;99678.41;4936812;28;6999;-76
2024/01/22 07:47:29;;;;;;;;;;;;;;;13.88;60.92;99697.41;4945991;28;7238;-76
2024/01/22 07:49:55;;;;;;;;;;;;;;;13.87;60.90;99693.09;4946928;28;6796;-76
2024/01/22 07:52:22;;;;;;;;;;;;;;;13.87;60.19;99706.84;4946203;28;6800;-76
2024/01/22 07:54:48;;;;;;;;;;;;;;;13.85;60.74;99715.38;4946349;28;6919;-76
2024/01/22 07:57:14;;;;;;;;;;;;;;;13.81;61.27;99704.13;4947328;28;6872;-76
2024/01/22 07:59:40;;;;;;;;;;;;;;;13.81;61.02;99722.13;4934653;28;7312;-75
2024/01/22 08:02:06;;;;;;;;;;;;;;;13.86;61.43;99704.22;4944467;28;6775;-76
2024/01/22 08:04:33;;;;;;;;;;;;;;;13.90;61.01;99716.31;4943262;28;6800;-76
2024/01/22 08:07:03;;;;;;;;;;;;;;;13.96;61.74;99705.31;4941891;28;6800;-76
2024/01/22 08:09:29;;;;;;;;;;;;;;;14.02;61.24;99710.59;4951911;28;6906;-76
2024/01/22 08:11:55;;;;;;;;;;;;;;;14.11;61.24;99702.22;4944814;28;6800;-76
2024/01/22 08:14:22;;;;;;;;;;;;;;;14.19;60.12;99708.38;4945618;29;6946;-76
2024/01/22 08:16:49;;;;;;;;;;;;;;;14.28;60.31;99700.00;4946143;28;6820;-76
2024/01/22 08:19:15;;;;;;;;;;;;;;;14.36;60.24;99713.94;4947209;28;6991;-76
2024/01/22 08:21:41;;;;;;;;;;;;;;;14.40;59.81;99714.88;4929171;28;7216;-76
2024/01/22 08:24:07;;;;;;;;;;;;;;;14.43;59.28;99718.34;4942921;28;6974;-76
2024/01/22 08:26:32;;;;;;;;;;;;;;;14.44;59.87;99720.13;4950500;28;7468;-76
2024/01/22 08:28:58;;;;;;;;;;;;;;;14.47;59.35;99708.97;4949293;28;6942;-76
2024/01/22 08:31:24;;;;;;;;;;;;;;;14.50;59.43;99695.28;4947901;28;6947;-76
2024/01/22 08:33:50;;;;;;;;;;;;;;;14.54;59.64;99703.13;4950314;28;7011;-76
2024/01/22 08:36:16;;;;;;;;;;;;;;;14.61;59.83;99713.56;4964752;28;7128;-76
2024/01/22 08:38:42;;;;;;;;;;;;;;;14.66;59.17;99712.84;4949213;28;6905;-76
2024/01/22 08:41:08;;;;;;;;;;;;;;;14.73;59.07;99693.22;4949527;28;7384;-76
2024/01/22 08:43:35;;;;;;;;;;;;;;;14.79;58.59;99706.25;4948277;28;7315;-76
2024/01/22 08:46:01;;;;;;;;;;;;;;;14.85;58.57;99698.59;4948987;28;6788;-76
2024/01/22 08:48:27;;;;;;;;;;;;;;;14.92;58.83;99704.78;4946183;28;6780;-75
2024/01/22 08:50:52;;;;;;;;;;;;;;;15.03;58.33;99699.78;4949510;28;6923;-76
2024/01/22 08:53:18;;;;;;;;;;;;;;;15.11;57.90;99705.09;4950216;28;6783;-76
2024/01/22 08:55:44;;;;;;;;;;;;;;;15.19;57.77;99716.44;4948699;28;7244;-76
2024/01/22 08:58:09;;;;;;;;;;;;;;;15.26;57.69;99720.00;4949714;28;6945;-76
2024/01/22 09:00:36;;;;;;;;;;;;;;;15.34;57.34;99700.34;4946660;28;6776;-76
2024/01/22 09:03:02;;;;;;;;;;;;;;;15.42;56.87;99700.50;4937519;28;6788;-76
2024/01/22 09:05:28;;;;;;;;;;;;;;;15.52;56.64;99714.41;4937682;28;7590;-77
2024/01/22 09:07:54;;;;;;;;;;;;;;;15.62;56.40;99710.28;4942898;28;7921;-77
2024/01/22 09:10:21;;;;;;;;;;;;;;;15.73;56.30;99721.66;4948674;28;7126;-77
2024/01/22 09:12:48;;;;;;;;;;;;;;;15.86;56.25;99698.59;4962898;28;7130;-76
2024/01/22 09:15:17;;;;;;;;;;;;;;;15.94;55.43;99712.53;4965219;28;6955;-77
2024/01/22 09:17:44;;;;;;;;;;;;;;;16.06;55.83;99712.69;4947991;28;7373;-76
2024/01/22 09:20:10;;;;;;;;;;;;;;;16.17;54.89;99718.03;4947382;28;6796;-76
2024/01/22 09:22:37;;;;;;;;;;;;;;;16.27;55.17;99713.84;4944126;28;6973;-76
2024/01/22 09:25:04;;;;;;;;;;;;;;;16.36;54.44;99703.63;4932631;28;7318;-76
2024/01/22 09:27:30;;;;;;;;;;;;;;;16.43;54.03;99706.31;4954585;28;6796;-74
2024/01/22 09:29:56;;;;;;;;;;;;;;;16.47;54.03;99695.16;4954565;28;6974;-73
2024/01/22 09:32:21;;;;;;;;;;;;;;;16.50;53.94;99710.72;4935605;28;7164;-73
2024/01/22 09:34:47;;;;;;;;;;;;;;;16.52;53.73;99711.59;4954273;28;6957;-72
2024/01/22 09:37:13;;;;;;;;;;;;;;;16.50;53.41;99698.63;4953546;28;6772;-73
2024/01/22 09:39:39;;;;;;;;;;;;;;;16.51;53.25;99712.44;4954900;28;6835;-73
2024/01/22 09:42:05;;;;;;;;;;;;;;;16.51;53.26;99707.28;4952360;28;7260;-72
2024/01/22 09:44:33;;;;;;;;;;;;;;;16.50;53.34;99711.56;4949362;28;6837;-72
2024/01/22 09:47:00;;;;;;;;;;;;;;;16.51;53.34;99707.28;4951333;28;6887;-73
2024/01/22 09:49:26;;;;;;;;;;;;;;;16.52;53.23;99699.53;4952466;28;6792;-72
2024/01/22 09:51:52;;;;;;;;;;;;;;;16.53;53.17;99721.09;4951226;28;6776;-71
2024/01/22 09:54:20;;;;;;;;;;;;;;;16.55;52.96;99710.75;4953527;28;6764;-73
2024/01/22 09:56:55;;;;;;;;;;;;;;;16.57;52.80;99716.81;4968335;28;7322;-72
2024/01/22 09:59:23;;;;;;;;;;;;;;;16.58;52.78;99695.28;4953495;28;7000;-72
2024/01/22 10:01:50;;;;;;;;;;;;;;;16.58;52.53;99723.72;4954706;28;6777;-72
2024/01/22 10:04:17;;;;;;;;;;;;;;;16.59;52.77;99730.63;4930320;28;7234;-73
2024/01/22 10:06:48;;;;;;;;;;;;;;;16.61;52.91;99713.41;4954518;28;7489;-73
2024/01/22 10:09:17;;;;;;;;;;;;;;;16.62;53.05;99721.19;4960453;28;6800;-73
2024/01/22 10:11:44;;;;;;;;;;;;;;;16.62;52.96;99728.09;4944061;28;6978;-72
2024/01/22 10:14:11;;;;;;;;;;;;;;;16.61;53.40;99711.72;4961011;28;7276;-73
2024/01/22 10:16:37;;;;;;;;;;;;;;;16.62;53.16;99715.19;4937558;28;7001;-72
2024/01/22 10:19:07;;;;;;;;;;;;;;;16.60;53.42;99732.38;4946639;28;7344;-75
2024/01/22 10:21:36;;;;;;;;;;;;;;;16.61;53.52;99747.91;4923428;28;8058;-75
2024/01/22 10:24:11;;;;;;;;;;;;;;;16.63;53.02;99732.44;4946247;28;6993;-75
2024/01/22 10:26:37;;;;;;;;;;;;;;;16.63;53.19;99735.88;4946211;28;6812;-75
2024/01/22 10:29:18;;;;;;;;;;;;;;;16.62;53.56;99738.47;4945735;28;6967;-75
2024/01/22 10:31:55;;;;;;;;;;;;;;;16.60;53.47;99728.06;4924253;28;6965;-75
2024/01/22 10:34:24;;;;;;;;;;;;;;;16.57;53.38;99733.22;4947293;28;6800;-75
2024/01/22 10:37:10;;;;;;;;;;;;;;;16.54;53.77;99732.31;4948493;28;7079;-75
2024/01/22 10:39:39;;;;;;;;;;;;;;;16.51;53.45;99727.97;4951741;28;6972;-74
2024/01/22 10:42:17;;;;;;;;;;;;;;;16.49;53.65;99720.16;4950650;28;6954;-73
2024/01/22 10:44:47;;;;;;;;;;;;;;;16.46;53.75;99735.66;4935562;28;6990;-73
2024/01/22 10:47:16;;;;;;;;;;;;;;;16.46;53.51;99694.28;4953306;28;6784;-72
2024/01/22 10:49:45;;;;;;;;;;;;;;;16.46;53.31;99722.72;4949612;28;6796;-72
2024/01/22 10:52:13;;;;;;;;;;;;;;;16.48;53.34;99712.41;4950991;28;6832;-75
2024/01/22 10:54:39;;;;;;;;;;;;;;;16.49;53.65;99712.41;4944428;28;6812;-74
2024/01/22 10:57:23;;;;;;;;;;;;;;;16.52;53.42;99698.66;4951106;28;6982;-74
2024/01/22 10:59:50;;;;;;;;;;;;;;;16.54;53.45;99728.00;4951316;28;6804;-73
2024/01/22 11:02:21;;;;;;;;;;;;;;;16.56;53.26;99709.91;4928583;28;6980;-73
2024/01/22 11:04:48;;;;;;;;;;;;;;;16.56;53.27;99704.75;4953444;28;6807;-74
2024/01/22 11:07:16;;;;;;;;;;;;;;;16.56;53.14;99715.09;4953695;28;7112;-71
2024/01/22 11:09:45;;;;;;;;;;;;;;;16.56;53.75;99715.94;4928915;28;6967;-73
2024/01/22 11:12:12;;;;;;;;;;;;;;;16.56;53.01;99722.84;4951034;28;7034;-72
2024/01/22 11:14:41;;;;;;;;;;;;;;;16.51;53.31;99726.25;4942526;28;9135;-73
2024/01/22 11:17:09;;;;;;;;;;;;;;;16.43;52.79;99691.66;4950764;28;6977;-72
2024/01/22 11:19:37;;;;;;;;;;;;;;;16.28;53.13;99722.47;4948959;28;6988;-74
2024/01/22 11:22:21;;;;;;;;;;;;;;;16.10;53.22;99719.66;4947482;28;6995;-73
2024/01/22 11:25:12;;;;;;;;;;;;;;;15.87;54.50;99727.03;4952784;28;6808;-73
2024/01/22 11:27:40;;;;;;;;;;;;;;;15.65;55.04;99723.25;4936338;28;6880;-73
2024/01/22 11:30:21;;;;;;;;;;;;;;;15.49;55.19;99719.53;4951797;28;7067;-73
2024/01/22 11:32:47;;;;;;;;;;;;;;;15.35;56.03;99735.63;4941069;28;12774;-73
2024/01/22 11:35:12;;;;;;;;;;;;;;;15.26;56.19;99748.41;4927416;29;7154;-73
2024/01/22 11:37:38;;;;;;;;;;;;;;;15.22;56.32;99728.53;4951705;28;7170;-73
2024/01/22 11:40:08;;;;;;;;;;;;;;;15.19;57.02;99767.19;4951141;28;7113;-73
2024/01/22 11:42:34;;;;;;;;;;;;;;;15.16;56.28;99773.16;4966126;28;7223;-75
2024/01/22 11:45:14;;;;;;;;;;;;;;;15.10;56.84;99792.00;4950629;28;7153;-72
2024/01/22 11:47:41;;;;;;;;;;;;;;;15.07;56.83;99799.69;5016249;22;6970;-75
2024/01/22 11:50:08;;;;;;;;;;;;;;;15.10;56.92;99796.25;4965978;28;7228;-76
2024/01/22 11:55:09;;;;;;;;;;;;;;;15.26;56.71;99807.78;5592679;23;6894;-75
2024/01/22 12:10:32;;;;;;;;;;;;;;;19.33;51.00;99814.03;5564191;23;6902;-74
2024/01/22 12:15:34;;;;;;;;;;;;;;;20.15;48.00;99812.41;5930435;23;6886;-76
2024/01/22 12:36:54;;;;;;;;;;;;;;;;;;;;;
2024/01/22 12:57:29;;;;;;;;;;;;;;;16.42;48.38;99888.19;4184363;23;7600;-76
2024/01/22 12:59:54;;;;;;;;;;;;;;;16.32;48.08;99893.22;4959272;28;6953;-73
2024/01/22 13:02:20;;;;;;;;;;;;;;;16.27;48.54;99883.63;4975338;28;8366;-74
2024/01/22 13:04:46;;;;;;;;;;;;;;;16.21;47.96;99890.44;4973996;28;6975;-73
2024/01/22 13:07:11;;;;;;;;;;;;;;;16.13;47.21;99889.47;4957212;28;6938;-72
2024/01/22 13:09:38;;;;;;;;;;;;;;;16.07;46.65;99897.09;4942980;28;7658;-75
2024/01/22 13:12:06;;;;;;;;;;;;;;;15.99;45.21;99903.84;4947696;28;7894;-74
2024/01/22 13:14:32;;;;;;;;;;;;;;;15.89;45.19;99918.28;4947377;28;7231;-72
2024/01/22 13:17:04;;;;;;;;;;;;;;;15.74;44.73;99913.69;4946121;28;6989;-74
2024/01/22 13:19:35;;;;;;;;;;;;;;;15.58;44.79;99904.78;4949540;28;7031;-75
2024/01/22 13:22:01;;;;;;;;;;;;;;;15.41;45.45;99921.69;4945977;28;6961;-72
2024/01/22 13:24:31;;;;;;;;;;;;;;;15.31;46.13;99926.63;4943466;28;6835;-73
2024/01/22 13:26:58;;;;;;;;;;;;;;;15.20;45.83;99934.13;4960979;28;6864;-73
2024/01/22 13:29:24;;;;;;;;;;;;;;;15.13;46.53;99931.41;4946814;28;7175;-74
2024/01/22 13:31:50;;;;;;;;;;;;;;;15.07;46.62;99920.97;4929700;28;6982;-73
2024/01/22 13:34:16;;;;;;;;;;;;;;;15.04;47.35;99925.19;4946300;28;6807;-72
2024/01/22 13:36:42;;;;;;;;;;;;;;;15.00;47.86;99924.25;4946729;28;6768;-74
2024/01/22 13:39:09;;;;;;;;;;;;;;;14.98;48.33;99920.78;4943910;28;6847;-73
2024/01/22 13:41:35;;;;;;;;;;;;;;;14.97;47.92;99929.34;4930232;28;6981;-74
2024/01/22 13:44:05;;;;;;;;;;;;;;;14.96;48.68;99938.78;4944944;28;7456;-73
2024/01/22 13:46:30;;;;;;;;;;;;;;;14.95;48.69;99951.66;4945986;28;6987;-75
2024/01/22 13:48:56;;;;;;;;;;;;;;;14.95;49.10;99943.91;4929592;28;7072;-73
2024/01/22 13:51:22;;;;;;;;;;;;;;;14.96;49.07;99958.53;4945724;28;6772;-73
2024/01/22 13:53:48;;;;;;;;;;;;;;;14.99;49.34;99961.22;4946003;28;6776;-73
2024/01/22 13:56:14;;;;;;;;;;;;;;;15.02;49.46;99956.13;4945133;28;7183;-74
2024/01/22 13:58:43;;;;;;;;;;;;;;;15.08;49.61;99969.16;4961915;28;7013;-73
2024/01/22 14:01:09;;;;;;;;;;;;;;;15.13;49.69;99958.94;4943096;28;7007;-73
2024/01/22 14:03:36;;;;;;;;;;;;;;;15.20;49.77;99957.38;4944871;28;7087;-73
2024/01/22 15:17:53;;;;;;;;;;;;;;;14.66;48.71;100005.97;2951536;23;7548;-76
2024/01/22 15:20:18;;;;;;;;;;;;;;;14.62;48.73;99999.00;4970601;28;6976;-74
2024/01/22 15:22:44;;;;;;;;;;;;;;;14.60;47.91;100006.69;4966348;28;7110;-74
2024/01/22 15:25:12;;;;;;;;;;;;;;;14.56;47.86;100021.22;4973031;28;6890;-74
2024/01/22 15:27:38;;;;;;;;;;;;;;;14.48;47.85;100025.28;4968773;28;6988;-74
2024/01/22 15:30:06;;;;;;;;;;;;;;;14.41;48.53;100023.41;4980390;28;6844;-74
2024/01/22 15:32:33;;;;;;;;;;;;;;;14.37;48.73;100039.59;4976964;28;6796;-76